Station Historical Data
Daily Summary for September 17, 2019 Units:  English    Metric   Both
« Previous Day
Next Day »
Daily Weekly Monthly Yearly Custom
  High: Low: Average:
Temperature: 77.3 °F 54.3 °F 64.1 °F
Dew Point: 63.6 °F 52 °F 56.6 °F
Humidity: 99% 45% 80%
Wind Speed: 11.5mph 0mph 1.4mph
Wind Gust: 12mph - -
Wind- - ESE
Pressure: 30.16 in 30.05 in -
Precipitation: 0.01 in    
Historical Graphs
 
 
Tabular Data for September 17, 2019
Time Temperature Dew Point Pressure Wind Wind Speed Wind Gust Humidity Rainfall Rate (Hourly) solar Conditions
00:00 63.8 °F 63.5 °F 30.05 in Calm     99% 0 in WeatherDisplay:10.37 W/m2 CLR
00:05 63.9 °F 63.6 °F 30.05 in Calm     99% 0 in WeatherDisplay:10.37 W/m2 CLR
00:10 63.9 °F 63.6 °F 30.05 in Calm     99% 0 in WeatherDisplay:10.37 W/m2 CLR
00:15 63.8 °F 63.5 °F 30.05 in Calm     99% 0 in WeatherDisplay:10.37 W/m2 CLR
00:20 63.8 °F 63.5 °F 30.05 in Calm     99% 0 in WeatherDisplay:10.37 W/m2 CLR
00:25 63.8 °F 63.5 °F 30.05 in Calm     99% 0 in WeatherDisplay:10.37 W/m2 CLR
00:30 63.7 °F 63.4 °F 30.05 in Calm     99% 0 in WeatherDisplay:10.37 W/m2 CLR
00:35 63.6 °F 63.3 °F 30.05 in Calm     99% 0 in WeatherDisplay:10.37 W/m2 CLR
00:40 63.5 °F 63.2 °F 30.06 in Calm     99% 0 in WeatherDisplay:10.37 W/m2 CLR
00:45 63.4 °F 63.1 °F 30.06 in Calm     99% 0 in WeatherDisplay:10.37 W/m2 CLR
00:50 63.4 °F 63.1 °F 30.06 in Calm     99% 0 in WeatherDisplay:10.37 W/m2 CLR
00:55 63.2 °F 62.9 °F 30.06 in Calm     99% 0 in WeatherDisplay:10.37 W/m2 CLR
01:00 63.1 °F 62.8 °F 30.06 in Calm     99% 0 in WeatherDisplay:10.37 W/m2 CLR
01:05 62.9 °F 62.6 °F 30.06 in Calm     99% 0 in WeatherDisplay:10.37 W/m2 CLR
01:10 62.8 °F 62.5 °F 30.06 in Calm     99% 0 in WeatherDisplay:10.37 W/m2 CLR
01:15 62.7 °F 62.4 °F 30.06 in Calm     99% 0 in WeatherDisplay:10.37 W/m2 CLR
01:20 62.6 °F 62.3 °F 30.06 in Calm     99% 0 in WeatherDisplay:10.37 W/m2 CLR
01:25 62.5 °F 62.2 °F 30.06 in Calm     99% 0 in WeatherDisplay:10.37 W/m2 CLR
01:30 62.3 °F 62 °F 30.07 in Calm     99% 0 in WeatherDisplay:10.37 W/m2 CLR
01:35 62.2 °F 61.9 °F 30.07 in Calm     99% 0 in WeatherDisplay:10.37 W/m2 CLR
01:40 62 °F 61.7 °F 30.07 in Calm     99% 0 in WeatherDisplay:10.37 W/m2 CLR
01:45 61.9 °F 61.6 °F 30.07 in Calm     99% 0 in WeatherDisplay:10.37 W/m2 CLR
01:50 61.7 °F 61.4 °F 30.06 in Calm     99% 0 in WeatherDisplay:10.37 W/m2 CLR
01:55 61.6 °F 61.3 °F 30.06 in Calm     99% 0 in WeatherDisplay:10.37 W/m2 CLR
02:00 61.4 °F 61.1 °F 30.06 in Calm     99% 0 in WeatherDisplay:10.37 W/m2 CLR
02:05 61.3 °F 61 °F 30.06 in Calm     99% 0 in WeatherDisplay:10.37 W/m2 CLR
02:10 61.2 °F 60.9 °F 30.06 in Calm     99% 0 in WeatherDisplay:10.37 W/m2 CLR
02:15 61.2 °F 60.9 °F 30.06 in Calm     99% 0 in WeatherDisplay:10.37 W/m2 CLR
02:20 61.2 °F 60.9 °F 30.06 in Calm     99% 0 in WeatherDisplay:10.37 W/m2 CLR
02:25 61.1 °F 60.8 °F 30.06 in Calm     99% 0 in WeatherDisplay:10.37 W/m2 CLR
02:30 61.1 °F 60.8 °F 30.06 in Calm     99% 0 in WeatherDisplay:10.37 W/m2 CLR
02:35 61 °F 60.7 °F 30.06 in Calm     99% 0 in WeatherDisplay:10.37 W/m2 CLR
02:40 60.9 °F 60.6 °F 30.06 in Calm     99% 0 in WeatherDisplay:10.37 W/m2 CLR
02:45 60.8 °F 60.5 °F 30.06 in Calm     99% 0 in WeatherDisplay:10.37 W/m2 CLR
02:50 60.7 °F 60.4 °F 30.06 in Calm     99% 0 in WeatherDisplay:10.37 W/m2 CLR
02:55 60.6 °F 60.3 °F 30.06 in Calm     99% 0 in WeatherDisplay:10.37 W/m2 CLR
03:00 60.4 °F 60.1 °F 30.06 in Calm     99% 0 in WeatherDisplay:10.37 W/m2 CLR
03:05 60.3 °F 60 °F 30.06 in Calm     99% 0 in WeatherDisplay:10.37 W/m2 CLR
03:10 60.2 °F 59.9 °F 30.06 in Calm     99% 0 in WeatherDisplay:10.37 W/m2 CLR
03:15 60 °F 59.7 °F 30.06 in Calm     99% 0 in WeatherDisplay:10.37 W/m2 CLR
03:20 59.9 °F 59.6 °F 30.06 in Calm     99% 0 in WeatherDisplay:10.37 W/m2 CLR
03:25 59.7 °F 59.4 °F 30.06 in Calm     99% 0 in WeatherDisplay:10.37 W/m2 CLR
03:30 59.6 °F 59.3 °F 30.06 in Calm     99% 0 in WeatherDisplay:10.37 W/m2 CLR
03:35 59.4 °F 59.1 °F 30.06 in Calm     99% 0 in WeatherDisplay:10.37 W/m2 CLR
03:40 59.3 °F 59 °F 30.06 in Calm     99% 0 in WeatherDisplay:10.37 W/m2 CLR
03:45 59.1 °F 58.8 °F 30.06 in Calm     99% 0 in WeatherDisplay:10.37 W/m2 CLR
03:50 59 °F 58.7 °F 30.06 in Calm     99% 0 in WeatherDisplay:10.37 W/m2 CLR
03:55 59 °F 58.7 °F 30.06 in Calm     99% 0 in WeatherDisplay:10.37 W/m2 CLR
04:00 58.8 °F 58.5 °F 30.07 in Calm     99% 0 in WeatherDisplay:10.37 W/m2 CLR
04:05 58.6 °F 58.3 °F 30.07 in Calm     99% 0 in WeatherDisplay:10.37 W/m2 CLR
04:10 58.6 °F 58.3 °F 30.07 in Calm     99% 0 in WeatherDisplay:10.37 W/m2 CLR
04:15 58.4 °F 58.1 °F 30.07 in Calm     99% 0 in WeatherDisplay:10.37 W/m2 CLR
04:20 58.2 °F 57.9 °F 30.07 in Calm     99% 0 in WeatherDisplay:10.37 W/m2 CLR
04:25 58.1 °F 57.8 °F 30.07 in Calm     99% 0 in WeatherDisplay:10.37 W/m2 CLR
04:30 57.9 °F 57.6 °F 30.07 in Calm     99% 0 in WeatherDisplay:10.37 W/m2 CLR
04:35 57.7 °F 57.4 °F 30.07 in Calm     99% 0 in WeatherDisplay:10.37 W/m2 CLR
04:40 57.5 °F 57.2 °F 30.07 in Calm     99% 0 in WeatherDisplay:10.37 W/m2 CLR
04:45 57.4 °F 57.1 °F 30.08 in Calm     99% 0 in WeatherDisplay:10.37 W/m2 CLR
04:50 57.2 °F 56.9 °F 30.07 in Calm     99% 0 in WeatherDisplay:10.37 W/m2 CLR
04:55 57 °F 56.7 °F 30.08 in Calm     99% 0 in WeatherDisplay:10.37 W/m2 CLR
05:00 56.9 °F 56.6 °F 30.08 in Calm     99% 0 in WeatherDisplay:10.37 W/m2 CLR
05:05 56.8 °F 56.5 °F 30.08 in Calm     99% 0 in WeatherDisplay:10.37 W/m2 CLR
05:10 56.7 °F 56.4 °F 30.08 in Calm     99% 0 in WeatherDisplay:10.37 W/m2 CLR
05:15 56.5 °F 56.2 °F 30.08 in Calm     99% 0 in WeatherDisplay:10.37 W/m2 CLR
05:20 56.3 °F 56 °F 30.08 in Calm     99% 0 in WeatherDisplay:10.37 W/m2 CLR
05:25 56.1 °F 55.8 °F 30.08 in Calm     99% 0 in WeatherDisplay:10.37 W/m2 CLR
05:30 55.9 °F 55.3 °F 30.08 in Calm     98% 0 in WeatherDisplay:10.37 W/m2 CLR
05:35 55.7 °F 55.4 °F 30.09 in Calm     99% 0 in WeatherDisplay:10.37 W/m2 CLR
05:40 55.6 °F 55.3 °F 30.09 in Calm     99% 0 in WeatherDisplay:10.37 W/m2 CLR
05:45 55.5 °F 55.2 °F 30.09 in Calm     99% 0 in WeatherDisplay:10.37 W/m2 CLR
05:50 55.5 °F 55.2 °F 30.09 in Calm     99% 0 in WeatherDisplay:10.37 W/m2 CLR
05:55 55.4 °F 55.1 °F 30.09 in Calm     99% 0 in WeatherDisplay:10.37 W/m2 CLR
06:00 55.4 °F 55.1 °F 30.09 in Calm     99% 0 in WeatherDisplay:10.37 W/m2 CLR
06:05 55.3 °F 55 °F 30.09 in Calm     99% 0 in WeatherDisplay:10.37 W/m2 CLR
06:10 55.3 °F 55 °F 30.09 in Calm     99% 0 in WeatherDisplay:10.37 W/m2 CLR
06:15 55.2 °F 54.9 °F 30.10 in Calm     99% 0 in WeatherDisplay:10.37 W/m2 CLR
06:20 55.1 °F 54.8 °F 30.10 in Calm     99% 0 in WeatherDisplay:10.37 W/m2 CLR
06:25 55.1 °F 54.8 °F 30.10 in Calm     99% 0 in WeatherDisplay:10.37 W/m2 CLR
06:30 55 °F 54.7 °F 30.10 in Calm     99% 0 in WeatherDisplay:10.37 W/m2 CLR
06:35 55 °F 54.7 °F 30.10 in Calm     99% 0 in WeatherDisplay:10.37 W/m2 CLR
06:40 54.9 °F 54.6 °F 30.11 in Calm     99% 0 in WeatherDisplay:10.37 W/m2 CLR
06:45 54.8 °F 54.5 °F 30.11 in Calm     99% 0 in WeatherDisplay:10.37 W/m2 CLR
06:50 54.8 °F 54.5 °F 30.11 in Calm     99% 0 in WeatherDisplay:10.37 W/m2 CLR
06:55 54.6 °F 54.3 °F 30.11 in Calm     99% 0 in WeatherDisplay:10.37 W/m2 CLR
07:00 54.5 °F 54.2 °F 30.12 in Calm     99% 0 in WeatherDisplay:10.37 W/m2 CLR
07:05 54.5 °F 54.2 °F 30.12 in Calm     99% 0 in WeatherDisplay:10.37 W/m2 CLR
07:10 54.5 °F 54.2 °F 30.12 in Calm     99% 0 in WeatherDisplay:10.37 W/m2 CLR
07:15 54.5 °F 54.2 °F 30.12 in Calm     99% 0 in WeatherDisplay:10.37 W/m2 CLR
07:20 54.5 °F 54.2 °F 30.12 in Calm     99% 0 in WeatherDisplay:10.37 W/m2 CLR
07:25 54.5 °F 54.2 °F 30.12 in Calm     99% 0 in WeatherDisplay:10.37 W/m2 CLR
07:30 54.6 °F 54.3 °F 30.12 in Calm     99% 0 in WeatherDisplay:10.37 W/m2 CLR
07:35 54.6 °F 54.3 °F 30.13 in Calm     99% 0 in WeatherDisplay:10.37 W/m2 CLR
07:40 54.8 °F 54.5 °F 30.13 in Calm     99% 0 in WeatherDisplay:10.37 W/m2 CLR
07:45 54.9 °F 54.6 °F 30.13 in Calm     99% 0 in WeatherDisplay:10.37 W/m2 CLR
07:50 55.1 °F 54.5 °F 30.13 in ENE 1.2 mph 0.1 mph 98% 0.01 in WeatherDisplay:10.37 W/m2 RA
07:55 55.4 °F 54.8 °F 30.13 in Calm     98% 0.01 in WeatherDisplay:10.37 W/m2 CLR
08:00 55.8 °F 55 °F 30.13 in Calm     97% 0.01 in WeatherDisplay:10.37 W/m2 CLR
08:05 56.3 °F 55.2 °F 30.13 in Calm     96% 0.01 in WeatherDisplay:10.37 W/m2 CLR
08:10 56.8 °F 55.4 °F 30.13 in ENE 3.5 mph 0.3 mph 95% 0.01 in WeatherDisplay:10.37 W/m2 CLR
08:15 57.2 °F 55.5 °F 30.13 in Calm     94% 0.01 in WeatherDisplay:10.37 W/m2 CLR
08:20 57.6 °F 55.3 °F 30.13 in Calm     92% 0.01 in WeatherDisplay:10.37 W/m2 CLR
08:25 58 °F 55.7 °F 30.14 in Calm     92% 0.01 in WeatherDisplay:10.37 W/m2 CLR
08:30 58.5 °F 55.6 °F 30.14 in ENE 4.6 mph 2.5 mph 90% 0.01 in WeatherDisplay:10.37 W/m2 CLR
08:35 59 °F 55.8 °F 30.14 in ENE 6.9 mph 2 mph 89% 0.01 in WeatherDisplay:10.37 W/m2 CLR
08:40 59 °F 55.4 °F 30.14 in ENE 5.8 mph 4.2 mph 88% 0.01 in WeatherDisplay:10.37 W/m2 CLR
08:45 59.3 °F 55.4 °F 30.14 in ENE 4.6 mph 3.2 mph 87% 0.01 in WeatherDisplay:10.37 W/m2 CLR
08:50 59.7 °F 55.8 °F 30.14 in ENE 4.6 mph 2.6 mph 87% 0 in WeatherDisplay:10.37 W/m2 CLR
08:55 60.1 °F 56.5 °F 30.14 in Calm     88% 0 in WeatherDisplay:10.37 W/m2 CLR
09:00 60.5 °F 56.3 °F 30.14 in ENE 4.6 mph 1.8 mph 86% 0 in WeatherDisplay:10.37 W/m2 CLR
10:48 65.6 °F 56.7 °F 30.15 in ENE 5.8 mph 3.2 mph 73% 0 in WeatherDisplay:10.37 W/m2 CLR
10:50 65.6 °F 56.3 °F 30.15 in ENE 3.5 mph 0.2 mph 72% 0 in WeatherDisplay:10.37 W/m2 CLR
10:55 65.9 °F 56.6 °F 30.15 in ENE 2.3 mph 0.6 mph 72% 0 in WeatherDisplay:10.37 W/m2 CLR
11:00 66.1 °F 57.2 °F 30.15 in ENE 3.5 mph 2.1 mph 73% 0 in WeatherDisplay:10.37 W/m2 CLR
11:05 66.3 °F 56.6 °F 30.15 in ENE 4.6 mph 3.2 mph 71% 0 in WeatherDisplay:10.37 W/m2 CLR
11:10 66.7 °F 57 °F 30.15 in ENE 5 mph 4.4 mph 71% 0 in WeatherDisplay:10.37 W/m2 CLR
11:15 66.9 °F 57.2 °F 30.15 in ENE 2 mph 0.3 mph 71% 0 in WeatherDisplay:10.37 W/m2 CLR
11:20 67.1 °F 57.4 °F 30.15 in ENE 5.8 mph 2.7 mph 71% 0 in WeatherDisplay:10.37 W/m2 CLR
11:25 67.2 °F 57.1 °F 30.15 in ENE 5 mph 4.3 mph 70% 0 in WeatherDisplay:10.37 W/m2 CLR
11:30 67.4 °F 57.3 °F 30.15 in NE 2.3 mph 0.9 mph 70% 0 in WeatherDisplay:10.37 W/m2 CLR
11:35 67.7 °F 57.6 °F 30.16 in Calm     70% 0 in WeatherDisplay:10.37 W/m2 CLR
11:40 68.1 °F 57.9 °F 30.15 in NE 1.2 mph 0.2 mph 70% 0 in WeatherDisplay:10.37 W/m2 CLR
11:45 68.4 °F 57.8 °F 30.15 in Calm     69% 0 in WeatherDisplay:10.37 W/m2 CLR
11:50 68.8 °F 57.8 °F 30.15 in NE 1.2 mph 0.1 mph 68% 0 in WeatherDisplay:10.37 W/m2 CLR
11:55 69.1 °F 58.1 °F 30.15 in Calm     68% 0 in WeatherDisplay:10.37 W/m2 CLR
12:00 69.4 °F 58 °F 30.15 in NE 2.3 mph 0.4 mph 67% 0 in WeatherDisplay:10.37 W/m2 CLR
12:05 69.4 °F 58 °F 30.15 in Calm     67% 0 in WeatherDisplay:10.37 W/m2 CLR
12:10 69.7 °F 58.3 °F 30.14 in Calm     67% 0 in WeatherDisplay:10.37 W/m2 CLR
12:15 69.8 °F 57.9 °F 30.14 in ENE 4 mph 2.6 mph 66% 0 in WeatherDisplay:10.37 W/m2 CLR
12:20 70.1 °F 57.4 °F 30.14 in ENE 2.3 mph   64% 0 in WeatherDisplay:10.37 W/m2 CLR
12:25 70.5 °F 58.2 °F 30.14 in Calm     65% 0 in WeatherDisplay:10.37 W/m2 CLR
12:30 70.7 °F 56.6 °F 30.14 in ENE 6.9 mph 3.1 mph 61% 0 in WeatherDisplay:10.37 W/m2 CLR
12:35 70.8 °F 57.1 °F 30.14 in ENE 5.8 mph 4.4 mph 62% 0 in WeatherDisplay:10.37 W/m2 CLR
12:40 70.9 °F 55.9 °F 30.14 in ENE 6 mph 4.5 mph 59% 0 in WeatherDisplay:10.37 W/m2 CLR
12:45 70.9 °F 56.3 °F 30.14 in North 4.6 mph 1.8 mph 60% 0 in WeatherDisplay:10.37 W/m2 CLR
12:50 71.2 °F 55.7 °F 30.13 in North 3.5 mph 1.2 mph 58% 0 in WeatherDisplay:10.37 W/m2 CLR
12:55 71.6 °F 56 °F 30.13 in ENE 8 mph 1.5 mph 58% 0 in WeatherDisplay:10.37 W/m2 CLR
13:00 71.5 °F 55.9 °F 30.13 in ENE 3.5 mph 0.9 mph 58% 0 in WeatherDisplay:10.37 W/m2 CLR
13:05 71.6 °F 56.5 °F 30.13 in NE 5.8 mph 2.1 mph 59% 0 in WeatherDisplay:10.37 W/m2 CLR
13:10 71.8 °F 55.3 °F 30.13 in ENE 3.5 mph 0.2 mph 56% 0 in WeatherDisplay:10.37 W/m2 CLR
13:15 71.8 °F 54.8 °F 30.13 in ENE 4 mph 1.5 mph 55% 0 in WeatherDisplay:10.37 W/m2 CLR
13:20 72 °F 55.9 °F 30.13 in ENE 4 mph   57% 0 in WeatherDisplay:10.37 W/m2 CLR
13:25 72.2 °F 57.1 °F 30.13 in ENE 5.8 mph 2.2 mph 59% 0 in WeatherDisplay:10.37 W/m2 CLR
13:30 72.6 °F 56.5 °F 30.12 in ENE 1.2 mph   57% 0 in WeatherDisplay:10.37 W/m2 CLR
13:35 72.8 °F 55.7 °F 30.12 in NE 1.2 mph 0.1 mph 55% 0 in WeatherDisplay:10.37 W/m2 CLR
13:40 72.9 °F 55.3 °F 30.12 in ENE 5 mph 0.7 mph 54% 0 in WeatherDisplay:10.37 W/m2 CLR
13:45 73.1 °F 55.5 °F 30.12 in Calm     54% 0 in WeatherDisplay:10.37 W/m2 CLR
13:50 73.3 °F 55.6 °F 30.12 in Calm     54% 0 in WeatherDisplay:10.37 W/m2 CLR
13:55 73.6 °F 56.9 °F 30.12 in Calm     56% 0 in WeatherDisplay:10.37 W/m2 CLR
14:00 74.2 °F 58 °F 30.12 in Calm     57% 0 in WeatherDisplay:10.37 W/m2 CLR
14:05 74.7 °F 58 °F 30.11 in Calm     56% 0 in WeatherDisplay:10.37 W/m2 CLR
14:10 75.1 °F 57.8 °F 30.11 in NE 1.2 mph   55% 0 in WeatherDisplay:10.37 W/m2 CLR
14:15 75.3 °F 57.5 °F 30.11 in NNE 3.5 mph 1.2 mph 54% 0 in WeatherDisplay:10.37 W/m2 CLR
14:20 75.2 °F 57.4 °F 30.11 in NNW 1.2 mph   54% 0 in WeatherDisplay:10.37 W/m2 CLR
14:25 75.1 °F 56.8 °F 30.10 in Calm     53% 0 in WeatherDisplay:10.37 W/m2 CLR
14:30 75.5 °F 57.7 °F 30.10 in ESE 1.2 mph   54% 0 in WeatherDisplay:10.37 W/m2 CLR
14:35 76.5 °F 57.6 °F 30.10 in Calm     52% 0 in WeatherDisplay:10.37 W/m2 CLR
14:40 77.1 °F 58.1 °F 30.10 in Calm     52% 0 in WeatherDisplay:10.37 W/m2 CLR
14:45 77.3 °F 57.8 °F 30.10 in South 1.2 mph 0.1 mph 51% 0 in WeatherDisplay:10.37 W/m2 CLR
14:50 77.3 °F 57.8 °F 30.09 in Calm     51% 0 in WeatherDisplay:10.37 W/m2 CLR
14:55 77 °F 57.5 °F 30.10 in Calm     51% 0 in WeatherDisplay:10.37 W/m2 CLR
15:00 76.5 °F 57.6 °F 30.09 in ENE 3.5 mph 0.5 mph 52% 0 in WeatherDisplay:10.37 W/m2 CLR
15:05 76.3 °F 56.8 °F 30.09 in Calm     51% 0 in WeatherDisplay:10.37 W/m2 CLR
15:10 76.2 °F 55.6 °F 30.09 in NW 3.5 mph 0.8 mph 49% 0 in WeatherDisplay:10.37 W/m2 CLR
15:15 76.2 °F 54.5 °F 30.09 in Calm     47% 0 in WeatherDisplay:10.37 W/m2 CLR
15:20 76.6 °F 53.7 °F 30.08 in West 1.2 mph   45% 0 in WeatherDisplay:10.37 W/m2 CLR
15:25 76.5 °F 54.8 °F 30.08 in NE 6.9 mph 2.2 mph 47% 0 in WeatherDisplay:10.37 W/m2 CLR
15:30 76.3 °F 54 °F 30.08 in NNE 9.2 mph 3.6 mph 46% 0 in WeatherDisplay:10.37 W/m2 CLR
15:35 75.9 °F 53.7 °F 30.08 in North 5 mph 12 mph 46% 0 in WeatherDisplay:10.37 W/m2 CLR
15:40 75.9 °F 54.2 °F 30.08 in NNW 5.8 mph 4.4 mph 47% 0 in WeatherDisplay:10.37 W/m2 CLR
15:45 75.8 °F 54.1 °F 30.08 in NNE 6 mph 3 mph 47% 0 in WeatherDisplay:10.37 W/m2 CLR
15:50 75.8 °F 54.1 °F 30.08 in North 9.2 mph 4.3 mph 47% 0 in WeatherDisplay:10.37 W/m2 CLR
15:55 75.7 °F 55.2 °F 30.08 in NNE 3.5 mph 0.7 mph 49% 0 in WeatherDisplay:10.37 W/m2 CLR
16:00 75.7 °F 54 °F 30.08 in NE 4 mph 0.7 mph 47% 0 in WeatherDisplay:10.37 W/m2 CLR
16:05 75.8 °F 54.1 °F 30.08 in NNW 5 mph 0.8 mph 47% 0 in WeatherDisplay:10.37 W/m2 CLR
16:10 75.7 °F 54.6 °F 30.08 in ENE 5.8 mph 3.1 mph 48% 0 in WeatherDisplay:10.37 W/m2 CLR
16:15 75.6 °F 55.1 °F 30.08 in NE 7 mph 4.6 mph 49% 0 in WeatherDisplay:10.37 W/m2 CLR
16:20 75.4 °F 55.5 °F 30.08 in NE 6.9 mph 3 mph 50% 0 in WeatherDisplay:10.37 W/m2 CLR
16:25 75.3 °F 54.3 °F 30.08 in NNE 8.1 mph 5.1 mph 48% 0 in WeatherDisplay:10.37 W/m2 CLR
16:30 75.2 °F 54.2 °F 30.09 in NE 9.2 mph 3.5 mph 48% 0 in WeatherDisplay:10.37 W/m2 CLR
16:35 75 °F 54.5 °F 30.09 in NNE 9.2 mph 6 mph 49% 0 in WeatherDisplay:10.37 W/m2 CLR
16:40 74.9 °F 55 °F 30.09 in East 9.2 mph 3.9 mph 50% 0 in WeatherDisplay:10.37 W/m2 CLR
16:45 74.8 °F 54.9 °F 30.09 in NE 10.4 mph 5.5 mph 50% 0 in WeatherDisplay:10.37 W/m2 CLR
16:50 74.6 °F 55.8 °F 30.08 in NE 6.9 mph 4 mph 52% 0 in WeatherDisplay:10.37 W/m2 CLR
16:55 74.5 °F 55.2 °F 30.08 in NNE 10.4 mph 6.8 mph 51% 0 in WeatherDisplay:10.37 W/m2 CLR
17:00 74.4 °F 55.1 °F 30.08 in NNW 10 mph 5.3 mph 51% 0 in WeatherDisplay:10.37 W/m2 CLR
17:05 74.4 °F 55.6 °F 30.08 in NE 5 mph 0.4 mph 52% 0 in WeatherDisplay:10.37 W/m2 CLR
17:10 74.2 °F 54.9 °F 30.09 in NW 11.5 mph 6.5 mph 51% 0 in WeatherDisplay:10.37 W/m2 CLR
17:15 74.1 °F 54.8 °F 30.09 in NE 3.5 mph 1 mph 51% 0 in WeatherDisplay:10.37 W/m2 CLR
17:20 74 °F 55.3 °F 30.09 in NNE 2.3 mph 0.4 mph 52% 0 in WeatherDisplay:10.37 W/m2 CLR
17:25 74 °F 55.3 °F 30.09 in ENE 5.8 mph 3.3 mph 52% 0 in WeatherDisplay:10.37 W/m2 CLR
17:30 74 °F 56.8 °F 30.09 in NNW 1.2 mph 0.1 mph 55% 0 in WeatherDisplay:10.37 W/m2 CLR
17:35 73.9 °F 55.7 °F 30.09 in NNW 6.9 mph 3.7 mph 53% 0 in WeatherDisplay:10.37 W/m2 CLR
17:40 73.9 °F 55.2 °F 30.09 in NNW 1.2 mph 0.2 mph 52% 0 in WeatherDisplay:10.37 W/m2 CLR
17:45 73.8 °F 55.6 °F 30.08 in NNW 7 mph 1.9 mph 53% 0 in WeatherDisplay:10.37 W/m2 CLR
17:50 73.6 °F 55.9 °F 30.09 in Calm     54% 0 in WeatherDisplay:10.37 W/m2 CLR
17:55 73.5 °F 56.8 °F 30.09 in NNW 2.3 mph 0.9 mph 56% 0 in WeatherDisplay:10.37 W/m2 CLR
18:00 73.4 °F 56.2 °F 30.09 in NNW 3.5 mph 0.2 mph 55% 0 in WeatherDisplay:10.37 W/m2 CLR
18:05 73.1 °F 55.5 °F 30.09 in North 1.2 mph   54% 0 in WeatherDisplay:10.37 W/m2 CLR
18:10 73 °F 56.4 °F 30.09 in Calm     56% 0 in WeatherDisplay:10.37 W/m2 CLR
18:15 72.8 °F 55.7 °F 30.09 in North 2.3 mph 0.5 mph 55% 0 in WeatherDisplay:10.37 W/m2 CLR
18:20 72.8 °F 55.2 °F 30.09 in Calm     54% 0 in WeatherDisplay:10.37 W/m2 CLR
18:25 72.7 °F 55.6 °F 30.09 in Calm     55% 0 in WeatherDisplay:10.37 W/m2 CLR
18:30 72.6 °F 57 °F 30.09 in Calm     58% 0 in WeatherDisplay:10.37 W/m2 CLR
18:35 72.2 °F 56.6 °F 30.09 in Calm     58% 0 in WeatherDisplay:10.37 W/m2 CLR
18:40 71.9 °F 57.3 °F 30.09 in Calm     60% 0 in WeatherDisplay:10.37 W/m2 CLR
18:45 71.4 °F 58.6 °F 30.09 in Calm     64% 0 in WeatherDisplay:10.37 W/m2 CLR
18:50 71 °F 58.6 °F 30.09 in Calm     65% 0 in WeatherDisplay:10.37 W/m2 CLR
18:55 70.4 °F 56.8 °F 30.09 in Calm     62% 0 in WeatherDisplay:10.37 W/m2 CLR
19:00 69.8 °F 57.5 °F 30.09 in Calm     65% 0 in WeatherDisplay:10.37 W/m2 CLR
19:05 69.1 °F 57.3 °F 30.09 in Calm     66% 0 in WeatherDisplay:10.37 W/m2 CLR
19:10 68.3 °F 57.3 °F 30.09 in Calm     68% 0 in WeatherDisplay:10.37 W/m2 CLR
19:15 67.6 °F 57.1 °F 30.10 in Calm     69% 0 in WeatherDisplay:10.37 W/m2 CLR
19:20 67 °F 57.3 °F 30.10 in Calm     71% 0 in WeatherDisplay:10.37 W/m2 CLR
19:25 66.3 °F 56.6 °F 30.10 in Calm     71% 0 in WeatherDisplay:10.37 W/m2 CLR
19:30 65.7 °F 56.4 °F 30.10 in Calm     72% 0 in WeatherDisplay:10.37 W/m2 CLR
19:35 65.1 °F 56.2 °F 30.10 in Calm     73% 0 in WeatherDisplay:10.37 W/m2 CLR
19:40 64.6 °F 56.1 °F 30.10 in Calm     74% 0 in WeatherDisplay:10.37 W/m2 CLR
19:45 64 °F 55.9 °F 30.11 in Calm     75% 0 in WeatherDisplay:10.37 W/m2 CLR
19:50 63.5 °F 55.8 °F 30.11 in Calm     76% 0 in WeatherDisplay:10.37 W/m2 CLR
19:55 63.1 °F 55.8 °F 30.11 in Calm     77% 0 in WeatherDisplay:10.37 W/m2 CLR
20:00 62.6 °F 55.3 °F 30.11 in Calm     77% 0 in WeatherDisplay:10.37 W/m2 CLR
20:05 62.2 °F 54.9 °F 30.11 in Calm     77% 0 in WeatherDisplay:10.37 W/m2 CLR
20:10 61.8 °F 55.2 °F 30.11 in Calm     79% 0 in WeatherDisplay:10.37 W/m2 CLR
20:15 61.5 °F 55.3 °F 30.11 in Calm     80% 0 in WeatherDisplay:10.37 W/m2 CLR
20:20 61.2 °F 55 °F 30.11 in Calm     80% 0 in WeatherDisplay:10.37 W/m2 CLR
20:25 60.9 °F 55 °F 30.11 in Calm     81% 0 in WeatherDisplay:10.37 W/m2 CLR
20:30 60.6 °F 54.7 °F 30.12 in Calm     81% 0 in WeatherDisplay:10.37 W/m2 CLR
20:35 60.4 °F 54.9 °F 30.12 in Calm     82% 0 in WeatherDisplay:10.37 W/m2 CLR
20:40 60.1 °F 54.9 °F 30.12 in Calm     83% 0 in WeatherDisplay:10.37 W/m2 CLR
20:45 59.9 °F 54.7 °F 30.12 in Calm     83% 0 in WeatherDisplay:10.37 W/m2 CLR
20:50 59.7 °F 54.5 °F 30.13 in Calm     83% 0 in WeatherDisplay:10.37 W/m2 CLR
20:55 59.5 °F 54.7 °F 30.13 in Calm     84% 0 in WeatherDisplay:10.37 W/m2 CLR
21:00 59.1 °F 54.3 °F 30.13 in Calm     84% 0 in WeatherDisplay:10.37 W/m2 CLR
21:05 59 °F 54.2 °F 30.12 in Calm     84% 0 in WeatherDisplay:10.37 W/m2 CLR
21:10 59 °F 54.5 °F 30.13 in Calm     85% 0 in WeatherDisplay:10.37 W/m2 CLR
21:15 58.8 °F 54.3 °F 30.13 in Calm     85% 0 in WeatherDisplay:10.37 W/m2 CLR
21:20 58.6 °F 54.1 °F 30.13 in Calm     85% 0 in WeatherDisplay:10.37 W/m2 CLR
21:25 58.3 °F 53.8 °F 30.13 in Calm     85% 0 in WeatherDisplay:10.37 W/m2 CLR
21:30 58.1 °F 53.9 °F 30.13 in Calm     86% 0 in WeatherDisplay:10.37 W/m2 CLR
21:35 57.9 °F 53.7 °F 30.13 in Calm     86% 0 in WeatherDisplay:10.37 W/m2 CLR
21:40 57.8 °F 53.6 °F 30.13 in Calm     86% 0 in WeatherDisplay:10.37 W/m2 CLR
21:45 57.7 °F 53.5 °F 30.13 in Calm     86% 0 in WeatherDisplay:10.37 W/m2 CLR
21:50 57.6 °F 53.4 °F 30.13 in Calm     86% 0 in WeatherDisplay:10.37 W/m2 CLR
21:55 57.4 °F 53.2 °F 30.13 in Calm     86% 0 in WeatherDisplay:10.37 W/m2 CLR
22:00 57.2 °F 53.4 °F 30.13 in Calm     87% 0 in WeatherDisplay:10.37 W/m2 CLR
22:05 57.1 °F 53.6 °F 30.14 in Calm     88% 0 in WeatherDisplay:10.37 W/m2 CLR
22:10 57 °F 53.5 °F 30.14 in Calm     88% 0 in WeatherDisplay:10.37 W/m2 CLR
22:15 56.9 °F 53.4 °F 30.14 in Calm     88% 0 in WeatherDisplay:10.37 W/m2 CLR
22:20 56.8 °F 53.6 °F 30.14 in Calm     89% 0 in WeatherDisplay:10.37 W/m2 CLR
22:25 56.6 °F 53.4 °F 30.14 in Calm     89% 0 in WeatherDisplay:10.37 W/m2 CLR
22:30 56.5 °F 53.3 °F 30.14 in Calm     89% 0 in WeatherDisplay:10.37 W/m2 CLR
22:35 56.3 °F 53.1 °F 30.15 in Calm     89% 0 in WeatherDisplay:10.37 W/m2 CLR
22:40 56.2 °F 53 °F 30.14 in Calm     89% 0 in WeatherDisplay:10.37 W/m2 CLR
22:45 56 °F 52.8 °F 30.15 in Calm     89% 0 in WeatherDisplay:10.37 W/m2 CLR
22:50 55.9 °F 52.7 °F 30.14 in Calm     89% 0 in WeatherDisplay:10.37 W/m2 CLR
22:55 55.7 °F 52.5 °F 30.14 in Calm     89% 0 in WeatherDisplay:10.37 W/m2 CLR
23:00 55.5 °F 52.3 °F 30.15 in Calm     89% 0 in WeatherDisplay:10.37 W/m2 CLR
23:05 55.5 °F 52.6 °F 30.14 in Calm     90% 0 in WeatherDisplay:10.37 W/m2 CLR
23:10 55.3 °F 52.4 °F 30.15 in Calm     90% 0 in WeatherDisplay:10.37 W/m2 CLR
23:15 55.2 °F 52.3 °F 30.15 in Calm     90% 0 in WeatherDisplay:10.37 W/m2 CLR
23:20 55.1 °F 52.2 °F 30.15 in Calm     90% 0 in WeatherDisplay:10.37 W/m2 CLR
23:25 55 °F 52.4 °F 30.15 in Calm     91% 0 in WeatherDisplay:10.37 W/m2 CLR
23:30 54.9 °F 52.3 °F 30.15 in Calm     91% 0 in WeatherDisplay:10.37 W/m2 CLR
23:35 54.8 °F 52.2 °F 30.15 in Calm     91% 0 in WeatherDisplay:10.37 W/m2 CLR
23:40 54.7 °F 52.1 °F 30.15 in Calm     91% 0 in WeatherDisplay:10.37 W/m2 CLR
23:45 54.6 °F 52 °F 30.15 in Calm     91% 0 in WeatherDisplay:10.37 W/m2 CLR
23:50 54.5 °F 52.2 °F 30.15 in Calm     92% 0 in WeatherDisplay:10.37 W/m2 CLR
23:55 54.3 °F 52 °F 30.15 in Calm     92% 0 in WeatherDisplay:10.37 W/m2 CLR
Lake Wynonah, (Auburn) PA USA